Data for 01/01/2009

Time Sea-Level Adjusted Pressure Absolute Pressure Temperature Relative Humidity Dew Point   
(mb) (inHg) (mb) (inHg) (C) (F) (%) (C) (F)
00:05 1010 29.83 839 24.78 -0.9 30.4 60 -7.7 18.1
00:10 1010 29.83 839 24.78 -1 30.3 60 -7.7 18.2
00:15 1010 29.83 839 24.78 -1 30.2 60 -7.8 18
00:20 1010 29.83 839 24.78 -1 30.2 59 -8.1 17.4
00:25 1010 29.83 839 24.78 -0.9 30.4 57 -8.4 16.9
00:30 1010 29.83 839 24.78 -0.8 30.5 58 -8 17.6
00:35 1010 29.83 839 24.78 -0.9 30.3 58 -8.2 17.3
00:40 1010 29.83 839 24.78 -1 30.2 58 -8.3 17.1
00:45 1010 29.83 839 24.78 -1 30.2 59 -8.1 17.4
00:50 1010 29.83 839 24.78 -1 30.2 57 -8.4 16.9
00:55 1010 29.83 839 24.78 -1 30.2 58 -8.3 17.1
01:00 1010 29.83 839 24.78 -1.1 30 60 -8 17.7
01:05 1010 29.83 839 24.78 -1.3 29.7 60 -8.1 17.4
01:10 1010 29.83 839 24.78 -1.4 29.5 60 -8.1 17.4
01:15 1010 29.83 839 24.78 -1.5 29.3 61 -8.1 17.5
01:20 1010 29.83 839 24.78 -1.7 29 62 -8 17.6
01:25 1010 29.83 839 24.78 -1.9 28.5 64 -7.9 17.7
01:30 1010 29.83 840 24.81 -2.1 28.2 65 -7.7 18.1
01:35 1010 29.83 840 24.81 -2.3 27.8 66 -7.9 17.8
01:40 1010 29.83 840 24.81 -2.4 27.6 67 -7.8 18
01:45 1011 29.85 840 24.81 -2.5 27.5 67 -7.8 18
01:50 1011 29.85 840 24.81 -2.6 27.3 68 -7.7 18.2
01:55 1011 29.85 840 24.81 -2.8 27 69 -7.8 18
02:00 1011 29.85 840 24.81 -2.8 26.9 69 -7.7 18.1
02:05 1011 29.85 840 24.81 -2.9 26.7 70 -7.7 18.1
02:10 1011 29.85 841 24.83 -3 26.6 70 -7.6 18.2
02:15 1011 29.85 841 24.83 -3.2 26.3 73 -7.4 18.6
02:20 1012 29.88 841 24.83 -3.6 25.6 73 -7.7 18.1
02:25 1012 29.88 841 24.83 -3.5 25.7 72 -7.9 17.7
02:30 1012 29.88 841 24.83 -3.4 26 71 -7.9 17.8
02:35 1012 29.88 841 24.83 -3.1 26.4 69 -8 17.5
02:40 1012 29.88 841 24.83 -2.9 26.7 66 -8.4 16.9
02:45 1012 29.88 841 24.83 -2.8 27 67 -8 17.5
02:50 1012 29.88 841 24.83 -2.8 27 67 -8.1 17.5
02:55 1012 29.88 841 24.83 -2.8 26.9 69 -7.8 18
03:00 1012 29.88 841 24.83 -2.9 26.8 69 -7.9 17.8
03:05 1012 29.88 841 24.83 -3.1 26.5 71 -7.7 18.2
03:10 1012 29.88 841 24.83 -3.2 26.2 71 -7.7 18.1
03:15 1012 29.88 841 24.83 -3.2 26.2 72 -7.7 18.2
03:20 1012 29.88 841 24.83 -3.3 26 72 -7.6 18.3
03:25 1012 29.88 841 24.83 -3.5 25.8 72 -7.8 18
03:30 1012 29.88 841 24.83 -3.4 25.8 72 -7.8 18
03:35 1012 29.88 841 24.83 -3.4 25.8 71 -7.9 17.7
03:40 1012 29.88 841 24.83 -3.5 25.6 71 -8.1 17.5
03:45 1012 29.88 841 24.83 -3.5 25.7 70 -8.2 17.3
03:50 1012 29.88 841 24.83 -3.4 25.9 69 -8.2 17.2
03:55 1012 29.88 841 24.83 -3.3 26.1 69 -8.1 17.4
04:00 1012 29.88 841 24.83 -3.3 26.1 69 -8.3 17.1
04:05 1012 29.88 841 24.83 -3.3 26 68 -8.4 16.8
04:10 1012 29.88 841 24.83 -3.2 26.2 67 -8.5 16.7
04:15 1012 29.88 841 24.83 -3.2 26.2 66 -8.6 16.5
04:20 1012 29.88 841 24.83 -3.3 26.1 66 -8.6 16.4
04:25 1012 29.88 841 24.83 -3.2 26.3 66 -8.7 16.4
04:30 1012 29.88 841 24.83 -3.1 26.4 66 -8.5 16.7
04:35 1012 29.88 841 24.83 -3.1 26.5 66 -8.6 16.6
04:40 1012 29.88 841 24.83 -3.1 26.5 65 -8.7 16.4
04:45 1012 29.88 841 24.83 -3.1 26.5 68 -8.2 17.2
04:50 1012 29.88 841 24.83 -3.1 26.4 67 -8.5 16.7
04:55 1012 29.88 841 24.83 -3.1 26.5 65 -8.7 16.4
05:00 1012 29.88 841 24.83 -3.1 26.4 65 -8.8 16.2
05:05 1012 29.88 841 24.83 -3.1 26.5 66 -8.6 16.6
05:10 1012 29.88 841 24.83 -3.1 26.4 65 -8.8 16.2
05:15 1012 29.88 841 24.83 -3.1 26.4 65 -8.7 16.3
05:20 1012 29.88 841 24.83 -3.1 26.4 66 -8.6 16.5
05:25 1012 29.88 841 24.83 -3.1 26.5 65 -8.7 16.3
05:30 1012 29.88 841 24.83 -3.1 26.3 64 -9.1 15.6
05:35 1012 29.88 841 24.83 -3.1 26.4 64 -9 15.8
05:40 1011 29.85 841 24.83 -3.1 26.4 65 -8.8 16.1
05:45 1011 29.85 841 24.83 -3.4 25.9 65 -9.1 15.7
05:50 1011 29.85 841 24.83 -3.6 25.4 65 -9.3 15.3
05:55 1011 29.85 841 24.83 -3.6 25.6 66 -9.1 15.6
06:00 1011 29.85 840 24.81 -3.6 25.5 65 -9.2 15.4
06:05 1011 29.85 840 24.81 -3.7 25.3 67 -9 15.8
06:10 1011 29.85 840 24.81 -3.8 25.1 68 -8.9 15.9
06:15 1011 29.85 840 24.81 -3.7 25.3 67 -9 15.8
06:20 1011 29.85 840 24.81 -3.7 25.4 64 -9.6 14.8
06:25 1011 29.85 841 24.83 -3.7 25.3 64 -9.5 14.9
06:30 1011 29.85 841 24.83 -3.6 25.5 62 -9.8 14.3
06:35 1011 29.85 841 24.83 -3.6 25.5 65 -9.2 15.4
06:40 1011 29.85 840 24.81 -3.7 25.3 65 -9.4 15.2
06:45 1011 29.85 841 24.83 -3.8 25.1 65 -9.5 14.8
06:50 1011 29.85 840 24.81 -4 24.8 68 -9.1 15.6
06:55 1011 29.85 840 24.81 -4 24.9 69 -8.8 16.1
07:00 1011 29.85 840 24.81 -4 24.9 67 -9.2 15.5
07:05 1011 29.85 840 24.81 -4.1 24.7 70 -8.8 16.2
07:10 1011 29.85 840 24.81 -4.2 24.4 69 -9.1 15.6
07:15 1011 29.85 840 24.81 -4.2 24.5 67 -9.4 15
07:20 1011 29.85 840 24.81 -4.1 24.7 66 -9.5 15
07:25 1011 29.85 840 24.81 -3.9 24.9 67 -9.2 15.5
07:30 1011 29.85 840 24.81 -3.9 25.1 63 -9.9 14.1
07:35 1011 29.85 840 24.81 -3.8 25.2 62 -10 14
07:40 1011 29.85 840 24.81 -3.7 25.3 62 -10 13.9
07:45 1011 29.85 840 24.81 -3.8 25.2 62 -10.1 13.9
07:50 1011 29.85 840 24.81 -3.7 25.3 64 -9.5 14.9
07:55 1011 29.85 840 24.81 -3.7 25.3 60 -10.5 13.1
08:00 1011 29.85 840 24.81 -3.6 25.6 61 -9.9 14.1
08:05 1011 29.85 840 24.81 -3.5 25.7 62 -9.8 14.3
08:10 1011 29.85 840 24.81 -3.4 25.9 63 -9.4 15
08:15 1011 29.85 840 24.81 -3.2 26.2 63 -9.4 15.2
08:20 1011 29.85 840 24.81 -3.2 26.2 65 -9 15.8
08:25 1011 29.85 840 24.81 -3.4 25.8 66 -9 15.8
08:30 1011 29.85 840 24.81 -3.7 25.4 65 -9.4 15
08:35 1010 29.83 840 24.81 -4 24.9 68 -9.1 15.6
08:40 1010 29.83 840 24.81 -3.9 24.9 62 -10.3 13.5
08:45 1010 29.83 840 24.81 -3.7 25.4 62 -9.8 14.3
08:50 1010 29.83 839 24.78 -3.8 25.2 63 -9.9 14.2
08:55 1010 29.83 839 24.78 -3.8 25.2 61 -10.3 13.5
09:00 1010 29.83 839 24.78 -3.6 25.5 62 -10 14.1
09:05 1010 29.83 839 24.78 -3.6 25.4 61 -10.2 13.7
09:10 1010 29.83 839 24.78 -3.5 25.7 58 -10.6 12.9
09:15 1010 29.83 839 24.78 -3.4 25.9 59 -10.3 13.4
09:20 1010 29.83 839 24.78 -3.4 25.8 62 -9.7 14.5
09:25 1010 29.83 839 24.78 -3.5 25.7 63 -9.5 14.9
09:30 1010 29.83 839 24.78 -3.5 25.7 66 -8.9 15.9
09:35 1010 29.83 839 24.78 -3.6 25.5 66 -9.1 15.6
09:40 1010 29.83 839 24.78 -4 24.8 66 -9.5 15
09:45 1010 29.83 839 24.78 -3.9 24.9 66 -9.4 15
09:50 1010 29.83 839 24.78 -3.9 25 65 -9.6 14.8
09:55 1010 29.83 839 24.78 -3.7 25.4 62 -9.9 14.2
10:00 1010 29.83 839 24.78 -3.5 25.8 61 -10 14.1
10:05 1010 29.83 839 24.78 -3.2 26.2 61 -9.8 14.4
10:10 1010 29.83 839 24.78 -3 26.6 59 -9.9 14.1
10:15 1009 29.8 839 24.78 -3 26.5 59 -10 14
10:20 1009 29.8 839 24.78 -2.9 26.7 58 -10 14
10:25 1009 29.8 838 24.75 -2.8 26.9 59 -9.9 14.2
10:30 1009 29.8 838 24.75 -2.7 27.2 57 -10.2 13.7
10:35 1009 29.8 838 24.75 -2.6 27.4 57 -9.9 14.2
10:40 1009 29.8 838 24.75 -2.3 27.9 59 -9.2 15.5
10:45 1009 29.8 838 24.75 -2.3 27.9 66 -7.7 18.2
10:50 1009 29.8 838 24.75 -2.5 27.5 71 -7.1 19.2
10:55 1009 29.8 838 24.75 -2.7 27.1 78 -6 21.1
11:00 1009 29.8 838 24.75 -2.6 27.3 79 -5.8 21.6
11:05 1008 29.77 838 24.75 -2.7 27.1 82 -5.4 22.2
11:10 1008 29.77 837 24.72 -2.7 27.2 83 -5.2 22.6
11:15 1008 29.77 837 24.72 -2.5 27.5 84 -4.9 23.2
11:20 1008 29.77 837 24.72 -2.5 27.5 84 -4.9 23.1
11:25 1008 29.77 837 24.72 -2.8 27 84 -5.1 22.9
11:30 1008 29.77 837 24.72 -3 26.6 85 -5.2 22.7
11:35 1007 29.74 837 24.72 -3.2 26.3 88 -4.9 23.1
11:40 1007 29.74 836 24.69 -3.1 26.5 88 -4.8 23.4
11:45 1007 29.74 836 24.69 -2.8 27 87 -4.7 23.6
11:50 1007 29.74 836 24.69 -2.6 27.3 86 -4.6 23.7
11:55 1007 29.74 836 24.69 -2.6 27.3 87 -4.6 23.8
12:00 1007 29.74 836 24.69 -2.6 27.4 87 -4.5 23.9
12:05 1007 29.74 836 24.69 -2.4 27.6 87 -4.4 24.1
12:10 1007 29.74 836 24.69 -2.3 27.9 85 -4.4 24.1
12:15 1006 29.71 836 24.69 -2.4 27.7 86 -4.5 23.9
12:20 1006 29.71 835 24.66 -2.3 27.9 85 -4.4 24
12:25 1006 29.71 835 24.66 -2.2 28.1 84 -4.4 24
12:30 1006 29.71 835 24.66 -2.1 28.2 84 -4.4 24
12:35 1006 29.71 835 24.66 -1.9 28.6 83 -4.4 24.2
12:40 1006 29.71 835 24.66 -1.7 28.9 82 -4.5 24
12:45 1006 29.71 835 24.66 -1.4 29.5 80 -4.3 24.2
12:50 1006 29.71 835 24.66 -1.2 29.9 80 -4.2 24.4
12:55 1005 29.68 835 24.66 -1.4 29.5 80 -4.3 24.2
13:00 1005 29.68 834 24.63 -1.6 29 82 -4.3 24.2
13:05 1005 29.68 834 24.63 -1.6 29.1 82 -4.4 24.1
13:10 1005 29.68 834 24.63 -1.5 29.2 81 -4.4 24.1
13:15 1005 29.68 834 24.63 -1.5 29.4 80 -4.4 24
13:20 1005 29.68 834 24.63 -1.4 29.5 79 -4.5 23.8
13:25 1005 29.68 834 24.63 -1.3 29.6 80 -4.4 24.1
13:30 1005 29.68 834 24.63 -1.3 29.7 80 -4.4 24.1
13:35 1004 29.65 834 24.63 -1.2 29.8 79 -4.5 24
13:40 1004 29.65 833 24.6 -1 30.2 77 -4.5 24
13:45 1004 29.65 833 24.6 -1.3 29.6 79 -4.5 23.9
13:50 1004 29.65 833 24.6 -1.4 29.5 79 -4.6 23.8
13:55 1004 29.65 833 24.6 -1.5 29.3 80 -4.5 23.9
14:00 1004 29.65 833 24.6 -1.2 29.8 78 -4.6 23.8
14:05 1004 29.65 833 24.6 -1.1 30 78 -4.5 23.9
14:10 1004 29.65 833 24.6 -1.2 29.8 78 -4.6 23.7
14:15 1004 29.65 833 24.6 -1.1 30.1 77 -4.6 23.8
14:20 1004 29.65 833 24.6 -0.9 30.5 76 -4.6 23.7
14:25 1004 29.65 833 24.6 -0.6 30.8 74 -4.6 23.6
14:30 1004 29.65 833 24.6 -0.6 30.9 75 -4.5 24
14:35 1003 29.62 833 24.6 -0.7 30.8 76 -4.5 24
14:40 1003 29.62 833 24.6 -0.8 30.5 76 -4.6 23.8
14:45 1003 29.62 832 24.57 -0.7 30.7 75 -4.6 23.7
14:50 1003 29.62 832 24.57 -0.6 30.9 75 -4.5 23.9
14:55 1003 29.62 832 24.57 -0.6 31 75 -4.4 24
15:00 1003 29.62 832 24.57 -0.6 30.9 75 -4.5 23.8
15:05 1003 29.62 832 24.57 -0.5 31 76 -4.3 24.2
15:10 1003 29.62 832 24.57 -0.9 30.4 77 -4.4 24.1
15:15 1003 29.62 832 24.57 -0.9 30.4 77 -4.4 24.1
15:20 1003 29.62 832 24.57 -0.8 30.6 76 -4.5 24
15:25 1003 29.62 832 24.57 -0.9 30.4 77 -4.5 24
15:30 1003 29.62 832 24.57 -1.1 30.1 78 -4.5 23.9
15:35 1003 29.62 832 24.57 -1.1 30 77 -4.6 23.6
15:40 1003 29.62 832 24.57 -1 30.2 77 -4.5 23.8
15:45 1003 29.62 832 24.57 -0.9 30.4 77 -4.5 23.9
15:50 1003 29.62 832 24.57 -0.9 30.3 77 -4.5 23.9
15:55 1003 29.62 832 24.57 -0.9 30.4 76 -4.6 23.8
16:00 1003 29.62 832 24.57 -0.8 30.5 76 -4.5 23.9
16:05 1003 29.62 832 24.57 -1 30.2 76 -4.6 23.7
16:10 1003 29.62 832 24.57 -1 30.2 76 -4.6 23.6
16:15 1003 29.62 832 24.57 -1 30.2 77 -4.6 23.8
16:20 1003 29.62 832 24.57 -1.2 29.9 78 -4.5 23.8
16:25 1003 29.62 832 24.57 -1.2 29.8 78 -4.6 23.7
16:30 1003 29.62 832 24.57 -1.2 29.8 78 -4.6 23.7
16:35 1003 29.62 832 24.57 -1.2 29.8 79 -4.5 23.9
16:40 1003 29.62 832 24.57 -1.2 29.9 78 -4.5 23.9
16:45 1003 29.62 832 24.57 -1.1 30 78 -4.5 23.9
16:50 1003 29.62 832 24.57 -1.3 29.7 78 -4.7 23.6
16:55 1002 29.59 832 24.57 -1.3 29.7 78 -4.7 23.5
17:00 1003 29.62 832 24.57 -1.3 29.6 78 -4.7 23.5
17:05 1002 29.59 832 24.57 -1.3 29.6 75 -5.1 22.8
17:10 1002 29.59 832 24.57 -1.1 30.1 74 -5.1 22.8
17:15 1002 29.59 832 24.57 -1 30.3 74 -5 22.9
17:20 1002 29.59 832 24.57 -0.8 30.5 72 -5.2 22.6
17:25 1002 29.59 832 24.57 -0.3 31.4 72 -4.8 23.3
17:30 1002 29.59 831 24.54 -0.4 31.4 72 -4.7 23.5
17:35 1002 29.59 831 24.54 -0.3 31.4 73 -4.7 23.6
17:40 1002 29.59 831 24.54 -0.3 31.5 72 -4.8 23.4
17:45 1002 29.59 831 24.54 -0.2 31.6 71 -4.8 23.4
17:50 1002 29.59 831 24.54 0.1 32.1 71 -4.6 23.7
17:55 1002 29.59 831 24.54 0.1 32.3 71 -4.5 23.9
18:00 1002 29.59 831 24.54 0.3 32.5 70 -4.5 23.9
18:05 1002 29.59 831 24.54 0.6 33 69 -4.5 23.9
18:10 1002 29.59 831 24.54 0.8 33.4 69 -4.2 24.5
18:15 1002 29.59 831 24.54 1.5 34.8 65 -4.2 24.4
18:20 1002 29.59 831 24.54 1.8 35.2 66 -3.9 24.9
18:25 1002 29.59 831 24.54 1.7 35 66 -4 24.8
18:30 1002 29.59 831 24.54 1.9 35.5 66 -3.8 25.1
18:35 1002 29.59 831 24.54 1.8 35.3 66 -3.8 25.1
18:40 1002 29.59 831 24.54 1.7 35.1 67 -3.8 25.2
18:45 1002 29.59 831 24.54 1.6 35 67 -3.8 25.1
18:50 1002 29.59 831 24.54 1.6 34.9 68 -3.7 25.4
18:55 1002 29.59 831 24.54 1.8 35.3 67 -3.6 25.5
19:00 1002 29.59 831 24.54 2 35.5 68 -3.3 26
19:05 1002 29.59 831 24.54 1.8 35.2 68 -3.5 25.8
19:10 1002 29.59 831 24.54 1.9 35.4 69 -3.2 26.2
19:15 1002 29.59 831 24.54 2.6 36.7 66 -3 26.6
19:20 1002 29.59 831 24.54 4 39.2 63 -2.4 27.8
19:25 1002 29.59 831 24.54 4.5 40.2 63 -1.9 28.5
19:30 1002 29.59 831 24.54 4.6 40.3 63 -1.9 28.6
19:35 1002 29.59 831 24.54 4.6 40.2 63 -1.9 28.6
19:40 1002 29.59 831 24.54 4.6 40.2 63 -1.9 28.5
19:45 1001 29.56 831 24.54 4.7 40.5 62 -1.9 28.6
19:50 1001 29.56 831 24.54 4.7 40.5 62 -1.9 28.6
19:55 1001 29.56 831 24.54 4.8 40.6 62 -1.9 28.7
20:00 1001 29.56 831 24.54 4.8 40.6 62 -1.8 28.8
20:05 1001 29.56 830 24.51 4.8 40.6 63 -1.7 28.9
20:10 1001 29.56 830 24.51 4.8 40.6 63 -1.7 28.9
20:15 1001 29.56 830 24.51 4.8 40.6 63 -1.7 29
20:20 1001 29.56 830 24.51 4.8 40.6 63 -1.7 29
20:25 1001 29.56 830 24.51 4.7 40.5 64 -1.6 29.2
20:30 1001 29.56 830 24.51 4.8 40.6 63 -1.7 28.9
20:35 1001 29.56 830 24.51 4.8 40.6 63 -1.6 29.1
20:40 1001 29.56 830 24.51 4.8 40.6 64 -1.5 29.3
20:45 1001 29.56 830 24.51 4.8 40.6 63 -1.6 29.1
20:50 1001 29.56 830 24.51 4.8 40.6 64 -1.5 29.4
20:55 1001 29.56 830 24.51 4.7 40.5 64 -1.4 29.4
21:00 1001 29.56 830 24.51 4.6 40.3 64 -1.5 29.2
21:05 1001 29.56 830 24.51 4.7 40.4 65 -1.4 29.6
21:10 1001 29.56 830 24.51 4.6 40.2 66 -1.3 29.6
21:15 1001 29.56 830 24.51 4.5 40.1 66 -1.3 29.7
21:20 1001 29.56 830 24.51 4.5 40.1 67 -1.1 30
21:25 1001 29.56 830 24.51 4.4 39.8 68 -1.1 30.1
21:30 1001 29.56 830 24.51 4.3 39.7 68 -1 30.2
21:35 1001 29.56 830 24.51 4.3 39.8 66 -1.4 29.5
21:40 1000 29.53 830 24.51 4.6 40.3 65 -1.3 29.6
21:45 1000 29.53 830 24.51 4.6 40.3 66 -1.2 29.8
21:50 1001 29.56 830 24.51 4.7 40.4 65 -1.3 29.7
21:55 1001 29.56 830 24.51 4.8 40.6 66 -1.1 30
22:00 1001 29.56 830 24.51 4.7 40.5 66 -1 30.2
22:05 1001 29.56 830 24.51 4.7 40.4 67 -1 30.2
22:10 1001 29.56 830 24.51 4.6 40.2 67 -1 30.2
22:15 1001 29.56 830 24.51 4.6 40.2 67 -1 30.2
22:20 1001 29.56 830 24.51 4.5 40.1 67 -1 30.2
22:25 1001 29.56 830 24.51 4.5 40 67 -1.1 30.1
22:30 1000 29.53 830 24.51 4.4 40 66 -1.4 29.6
22:35 1001 29.56 830 24.51 4.6 40.3 65 -1.4 29.5
22:40 1001 29.56 830 24.51 4.7 40.5 64 -1.5 29.2
22:45 1000 29.53 830 24.51 4.9 40.8 61 -1.9 28.5
22:50 1000 29.53 830 24.51 5.2 41.3 59 -2.1 28.2
22:55 1000 29.53 830 24.51 5.5 42 57 -2.2 28
23:00 1000 29.53 829 24.48 5.7 42.3 57 -2.1 28.1
23:05 1000 29.53 830 24.51 5.7 42.2 58 -2 28.4
23:10 1000 29.53 830 24.51 5.5 41.9 59 -2 28.5
23:15 1000 29.53 830 24.51 5.3 41.6 60 -1.9 28.6
23:20 1000 29.53 830 24.51 5.2 41.3 60 -1.9 28.6
23:25 1000 29.53 830 24.51 5 41 62 -1.7 29
23:30 1001 29.56 830 24.51 4.6 40.4 64 -1.5 29.2
23:35 1000 29.53 830 24.51 4.4 39.9 65 -1.6 29
23:40 1000 29.53 830 24.51 4.4 40 63 -2 28.4
23:45 1000 29.53 830 24.51 4.5 40.2 64 -1.7 28.9
23:50 1000 29.53 830 24.51 4.3 39.7 66 -1.5 29.3
23:55 1000 29.53 829 24.48 4 39.3 66 -1.6 29.1
24:00 1000 29.53 829 24.48 4 39.1 67 -1.7 29